Time;durP1;ratioP1;P1;durP2;ratioP2;P2;SDS_P1;SDS_P2;PMS_P1;PMS_P2;Temp;Humidity;BMP_temperature;BMP_pressure;BME280_temperature;BME280_humidity;BME280_pressure;Samples;Min_cycle;Max_cycle;Signal;HPM_P1;HPM_P2
2021/12/19 00:10:08;;;;;;;11.85;8.85;;;;;;;15.39;55.19;96998.81;10495272;28;20055;-70
2021/12/19 00:15:10;;;;;;;12.38;9.05;;;;;;;15.39;55.19;96998.81;10494924;28;20045;-70
2021/12/19 00:20:11;;;;;;;12.32;8.88;;;;;;;15.36;55.09;97000.94;10494778;28;20051;-70
2021/12/19 00:25:33;;;;;;;11.50;8.85;;;;;;;15.33;54.97;96989.06;10494583;28;20532;-70
2021/12/19 00:30:35;;;;;;;11.52;8.88;;;;;;;15.33;55.16;96978.66;10494423;28;20045;-70
2021/12/19 00:35:37;;;;;;;10.35;8.60;;;;;;;15.32;55.26;96977.03;10494295;28;20155;-70
2021/12/19 00:40:39;;;;;;;10.88;8.23;;;;;;;15.32;55.05;96956.22;10494526;28;20094;-70
2021/12/19 00:45:41;;;;;;;12.10;8.55;;;;;;;15.31;55.13;96967.59;10494007;28;20052;-71
2021/12/19 00:50:43;;;;;;;12.32;8.88;;;;;;;15.30;55.51;96971.16;10497605;28;20040;-70
2021/12/19 00:55:44;;;;;;;11.77;8.45;;;;;;;15.29;55.01;96972.16;10502214;28;20395;-70
2021/12/19 01:00:46;;;;;;;12.27;8.38;;;;;;;15.30;55.01;96972.97;10501369;28;20048;-71
2021/12/19 01:05:48;;;;;;;10.77;8.55;;;;;;;15.30;55.01;96972.97;10501957;28;20049;-70
2021/12/19 01:10:50;;;;;;;12.48;8.38;;;;;;;15.29;54.74;96964.34;10500546;28;20483;-71
2021/12/19 01:15:53;;;;;;;10.60;8.18;;;;;;;15.27;55.27;96955.09;10500738;28;20045;-71
2021/12/19 01:20:55;;;;;;;9.50;7.63;;;;;;;15.27;55.09;96948.13;10501660;28;20405;-70
2021/12/19 01:25:57;;;;;;;10.07;7.95;;;;;;;15.26;55.11;96951.69;10500193;28;20052;-70
2021/12/19 01:30:58;;;;;;;11.07;8.18;;;;;;;15.29;54.86;96955.72;10500842;28;20383;-70
2021/12/19 01:36:01;;;;;;;9.55;7.78;;;;;;;15.28;54.69;96954.13;10500891;28;20037;-70
2021/12/19 01:41:03;;;;;;;8.80;7.40;;;;;;;15.26;54.62;96946.47;10500493;28;20048;-70
2021/12/19 01:46:05;;;;;;;9.35;7.80;;;;;;;15.27;55.12;96945.50;10499120;28;20040;-70
2021/12/19 01:51:06;;;;;;;9.52;7.63;;;;;;;15.27;55.17;96952.47;10499143;28;20033;-70
2021/12/19 01:56:08;;;;;;;10.43;8.35;;;;;;;15.24;54.81;96956.25;10500283;28;20048;-70
2021/12/19 02:01:10;;;;;;;9.50;7.97;;;;;;;15.26;55.03;96956.06;10499355;28;20052;-71
2021/12/19 02:06:11;;;;;;;8.77;7.10;;;;;;;15.26;55.06;96953.47;10499672;28;20048;-70
2021/12/19 02:11:14;;;;;;;9.73;7.47;;;;;;;15.26;55.06;96953.47;10499843;28;20110;-71
2021/12/19 02:16:16;;;;;;;9.40;7.50;;;;;;;15.25;55.06;96942.25;10499199;28;20040;-70
2021/12/19 02:21:18;;;;;;;9.70;7.60;;;;;;;15.25;54.96;96942.25;10499600;28;20045;-70
2021/12/19 02:26:19;;;;;;;9.48;7.35;;;;;;;15.28;54.71;96946.31;10498294;28;20087;-71
2021/12/19 02:31:22;;;;;;;10.48;7.60;;;;;;;15.26;54.61;96943.06;10498489;28;20052;-70
2021/12/19 02:36:38;;;;;;;9.35;7.35;;;;;;;15.26;54.58;96936.06;10498382;28;20045;-70
2021/12/19 02:52:37;;;;;;;9.38;7.60;;;;;;;15.24;54.76;96927.63;10492429;28;20044;-71
2021/12/19 02:57:40;;;;;;;8.68;6.70;;;;;;;15.24;54.64;96938.84;10497338;28;20448;-70
2021/12/19 03:02:41;;;;;;;8.73;7.18;;;;;;;15.25;54.78;96934.44;10469971;28;20056;-70
2021/12/19 03:07:44;;;;;;;8.98;7.15;;;;;;;15.25;54.67;96924.03;10455784;28;20103;-71
2021/12/19 03:18:07;;;;;;;9.75;6.95;;;;;;;15.26;54.39;96937.88;10455538;28;20556;-70
2021/12/19 03:23:11;;;;;;;9.00;7.03;;;;;;;15.26;54.58;96923.06;10455359;28;20386;-70
2021/12/19 03:28:14;;;;;;;9.68;7.20;;;;;;;15.24;54.30;96915.44;10454864;28;20056;-70
2021/12/19 03:33:16;;;;;;;10.55;7.18;;;;;;;15.24;54.30;96915.44;10454788;28;20049;-70
2021/12/19 03:38:18;;;;;;;10.48;6.80;;;;;;;15.24;54.26;96886.00;10447905;28;20045;-71
2021/12/19 03:43:22;;;;;;;9.07;6.80;;;;;;;15.23;54.72;96884.38;10454609;28;20047;-71
2021/12/19 03:48:24;;;;;;;9.15;6.90;;;;;;;15.22;54.41;96891.38;10454314;28;20442;-70
2021/12/19 03:53:25;;;;;;;10.05;7.28;;;;;;;15.21;54.48;96892.34;10454308;28;20456;-70
2021/12/19 03:58:27;;;;;;;9.00;6.80;;;;;;;15.23;54.46;96887.78;10453770;28;20052;-70
2021/12/19 04:03:29;;;;;;;8.52;6.50;;;;;;;15.22;54.26;96886.19;10453614;28;20076;-70
2021/12/19 04:08:31;;;;;;;9.20;6.53;;;;;;;15.20;54.46;96879.50;10453470;28;20514;-70
2021/12/19 04:13:33;;;;;;;8.88;6.78;;;;;;;15.19;54.55;96870.91;10450642;28;20041;-71
2021/12/19 04:18:34;;;;;;;7.70;6.25;;;;;;;15.18;54.52;96861.47;10453680;28;20052;-70
2021/12/19 04:23:36;;;;;;;9.68;6.75;;;;;;;15.19;54.42;96863.09;10435607;28;20048;-71
2021/12/19 04:28:38;;;;;;;9.43;6.93;;;;;;;15.19;54.42;96863.09;10453272;28;20643;-71
2021/12/19 04:33:41;;;;;;;9.75;7.00;;;;;;;15.15;54.29;96861.00;10453430;28;20099;-70
2021/12/19 05:15:34;;;;;;;9.52;6.50;;;;;;;15.13;54.89;96808.31;10452559;28;20056;-70
2021/12/19 05:20:38;;;;;;;8.73;6.63;;;;;;;15.13;54.89;96808.31;10452484;28;20376;-70
2021/12/19 05:25:40;;;;;;;7.63;5.82;;;;;;;15.10;54.42;96806.09;10452466;28;20049;-71
2021/12/19 05:30:42;;;;;;;8.77;6.75;;;;;;;15.10;54.30;96822.47;10452133;28;20490;-72
2021/12/19 05:46:18;;;;;;;8.82;6.45;;;;;;;15.05;54.74;96840.38;10455709;28;20091;-71
2021/12/19 05:51:20;;;;;;;9.30;6.55;;;;;;;15.05;54.74;96840.38;10458556;28;20490;-71
2021/12/19 05:56:22;;;;;;;7.43;6.18;;;;;;;15.05;54.84;96822.97;10459035;28;20049;-71
2021/12/19 06:01:23;;;;;;;9.50;6.30;;;;;;;15.04;54.12;96817.94;10474763;28;20044;-71
2021/12/19 06:06:26;;;;;;;7.20;6.35;;;;;;;15.02;54.59;96804.31;10500134;28;20098;-71
2021/12/19 06:11:27;;;;;;;8.70;6.57;;;;;;;15.02;54.75;96814.72;10499705;28;20037;-71
2021/12/19 06:16:30;;;;;;;7.30;5.35;;;;;;;15.01;55.89;96813.88;10499942;28;20044;-71
2021/12/19 06:21:31;;;;;;;8.70;5.60;;;;;;;15.02;56.11;96819.91;10499417;28;20122;-71
2021/12/19 06:26:35;;;;;;;7.20;4.78;;;;;;;15.02;56.21;96812.91;10499816;28;20560;-71
2021/12/19 06:31:38;;;;;;;6.70;5.05;;;;;;;15.01;56.69;96808.69;10498755;28;20521;-71
2021/12/19 06:36:41;;;;;;;6.28;4.55;;;;;;;15.01;57.23;96789.69;10499020;28;20044;-71
2021/12/19 06:41:42;;;;;;;7.00;4.40;;;;;;;14.99;56.93;96786.44;10498711;28;20105;-71
2021/12/19 06:46:44;;;;;;;8.73;4.57;;;;;;;14.99;57.29;96809.84;10497299;28;20410;-71
2021/12/19 06:51:45;;;;;;;9.02;4.43;;;;;;;14.98;57.66;96798.59;10498086;28;20048;-71
2021/12/19 06:56:47;;;;;;;8.88;4.40;;;;;;;14.98;57.66;96798.59;10497344;28;20047;-71
2021/12/19 07:01:50;;;;;;;10.02;4.30;;;;;;;14.98;57.50;96790.00;10494182;28;20077;-71
2021/12/19 07:06:51;;;;;;;5.65;4.18;;;;;;;14.96;57.69;96777.16;10495728;28;20037;-71
2021/12/19 07:11:53;;;;;;;10.32;4.78;;;;;;;14.97;57.65;96758.00;10496586;28;20041;-71
2021/12/19 07:16:54;;;;;;;10.07;4.72;;;;;;;14.98;57.96;96782.22;10496434;28;20036;-71
2021/12/19 07:21:56;;;;;;;7.18;4.50;;;;;;;14.97;58.26;96771.00;10496962;28;20043;-72
2021/12/19 07:26:57;;;;;;;15.00;5.20;;;;;;;14.99;62.33;96776.03;10496280;28;20052;-72
2021/12/19 07:31:59;;;;;;;15.90;5.78;;;;;;;14.99;63.01;96776.03;10494648;28;20044;-72
2021/12/19 07:37:01;;;;;;;31.75;6.20;;;;;;;15.03;63.00;96761.72;10495731;28;20039;-71
2021/12/19 07:42:06;;;;;;;21.42;6.28;;;;;;;15.14;65.98;96776.94;10495756;28;20036;-70
